Time;durP1;ratioP1;P1;durP2;ratioP2;P2;SDS_P1;SDS_P2;PMS_P1;PMS_P2;Temp;Humidity;BMP_temperature;BMP_pressure;BME280_temperature;BME280_humidity;BME280_pressure;Samples;Min_cycle;Max_cycle;Signal;HPM_P1;HPM_P2
2022/08/07 00:01:20;;;;;;;1.67;1.00;;;;;;;;;;5034267;28;20442;-76
2022/08/07 00:03:46;;;;;;;2.10;1.00;;;;;;;;;;5034461;28;20402;-75
2022/08/07 00:06:12;;;;;;;1.17;0.80;;;;;;;;;;5034109;28;20421;-75
2022/08/07 00:08:38;;;;;;;3.30;1.20;;;;;;;;;;5034041;28;20434;-75
2022/08/07 00:11:04;;;;;;;0.87;0.87;;;;;;;;;;5034072;28;20450;-75
2022/08/07 00:13:31;;;;;;;0.90;0.90;;;;;;;;;;5016252;28;20409;-75
2022/08/07 00:15:57;;;;;;;1.10;1.00;;;;;;;;;;5033924;28;20831;-75
2022/08/07 00:18:25;;;;;;;1.00;0.93;;;;;;;;;;5033906;28;20797;-75
2022/08/07 00:21:01;;;;;;;2.40;1.00;;;;;;;;;;5033937;28;20427;-76
2022/08/07 00:23:28;;;;;;;1.20;1.07;;;;;;;;;;5016068;28;20852;-75
2022/08/07 00:25:54;;;;;;;4.53;1.40;;;;;;;;;;5016076;28;20464;-75
2022/08/07 00:28:20;;;;;;;5.70;1.40;;;;;;;;;;5033766;28;20438;-75
2022/08/07 00:30:46;;;;;;;1.43;1.33;;;;;;;;;;5033606;28;20932;-75
2022/08/07 00:33:12;;;;;;;2.30;1.10;;;;;;;;;;5033766;28;20397;-75
2022/08/07 00:35:38;;;;;;;4.87;1.13;;;;;;;;;;5033626;28;20487;-75
2022/08/07 00:38:04;;;;;;;1.10;1.00;;;;;;;;;;5033697;28;20413;-75
2022/08/07 00:40:30;;;;;;;4.90;1.47;;;;;;;;;;5033605;28;20412;-75
2022/08/07 00:42:57;;;;;;;3.17;0.90;;;;;;;;;;5015654;28;20563;-75
2022/08/07 00:45:23;;;;;;;3.20;1.00;;;;;;;;;;5033769;28;20509;-75
2022/08/07 00:47:49;;;;;;;2.97;1.07;;;;;;;;;;5033577;28;20612;-75
2022/08/07 00:50:15;;;;;;;1.90;0.97;;;;;;;;;;5033700;28;20839;-75
2022/08/07 00:52:41;;;;;;;1.30;0.93;;;;;;;;;;5033431;28;20428;-75
2022/08/07 00:55:07;;;;;;;3.13;1.13;;;;;;;;;;5033402;28;20426;-75
2022/08/07 00:57:34;;;;;;;1.00;1.00;;;;;;;;;;5033457;28;20910;-75
2022/08/07 01:00:00;;;;;;;0.93;0.93;;;;;;;;;;5033399;28;20891;-75
2022/08/07 01:02:26;;;;;;;6.93;1.10;;;;;;;;;;5033365;28;20750;-75
2022/08/07 01:04:52;;;;;;;1.30;1.20;;;;;;;;;;5033625;28;20845;-75
2022/08/07 01:07:20;;;;;;;1.20;1.10;;;;;;;;;;5033290;28;20420;-75
2022/08/07 01:09:46;;;;;;;0.83;0.83;;;;;;;;;;5033238;28;20464;-75
2022/08/07 01:12:13;;;;;;;0.90;0.90;;;;;;;;;;5033240;28;20411;-75
2022/08/07 01:14:39;;;;;;;3.13;0.80;;;;;;;;;;5033247;28;20919;-75
2022/08/07 01:17:05;;;;;;;1.10;1.10;;;;;;;;;;5033276;28;20400;-75
2022/08/07 01:19:31;;;;;;;2.30;1.20;;;;;;;;;;5033269;28;20500;-75
2022/08/07 01:21:58;;;;;;;3.20;1.13;;;;;;;;;;5033176;28;20410;-75
2022/08/07 01:24:24;;;;;;;3.50;1.17;;;;;;;;;;5033127;28;20519;-75
2022/08/07 01:26:51;;;;;;;0.90;0.90;;;;;;;;;;5033178;28;20432;-75
2022/08/07 01:29:17;;;;;;;1.33;1.00;;;;;;;;;;5033033;28;20533;-75
2022/08/07 01:31:43;;;;;;;1.00;1.00;;;;;;;;;;5033110;28;20421;-75
2022/08/07 01:34:12;;;;;;;1.10;1.10;;;;;;;;;;5033085;28;20757;-75
2022/08/07 01:36:39;;;;;;;1.10;1.10;;;;;;;;;;5033043;28;20416;-74
2022/08/07 01:39:05;;;;;;;3.60;1.10;;;;;;;;;;5015300;28;20428;-75
2022/08/07 01:41:32;;;;;;;7.03;1.20;;;;;;;;;;5033258;28;20395;-75
2022/08/07 01:43:58;;;;;;;2.40;1.10;;;;;;;;;;5035540;28;20471;-75
2022/08/07 01:46:25;;;;;;;1.53;1.13;;;;;;;;;;5036792;28;20408;-76
2022/08/07 01:48:51;;;;;;;7.60;1.20;;;;;;;;;;5036615;28;20412;-75
2022/08/07 01:51:18;;;;;;;1.57;0.90;;;;;;;;;;5036712;28;20480;-75
2022/08/07 01:53:46;;;;;;;1.37;1.00;;;;;;;;;;5036627;28;20495;-75
2022/08/07 01:56:14;;;;;;;0.80;0.80;;;;;;;;;;5036619;28;20422;-75
2022/08/07 01:59:00;;;;;;;0.90;0.90;;;;;;;;;;5036589;28;20404;-75
2022/08/07 02:01:29;;;;;;;2.40;0.97;;;;;;;;;;5036544;28;20404;-75
2022/08/07 02:04:20;;;;;;;2.97;1.17;;;;;;;;;;5036457;28;20413;-75
2022/08/07 02:06:46;;;;;;;0.87;0.87;;;;;;;;;;5036383;28;20440;-75
2022/08/07 02:09:15;;;;;;;1.20;1.10;;;;;;;;;;5036224;28;20471;-75
2022/08/07 02:11:43;;;;;;;7.00;1.00;;;;;;;;;;5036260;28;20967;-75
2022/08/07 02:14:10;;;;;;;2.10;1.20;;;;;;;;;;5036309;28;20423;-74
2022/08/07 02:16:37;;;;;;;1.47;1.23;;;;;;;;;;5036178;28;20419;-75
2022/08/07 02:19:05;;;;;;;2.90;1.23;;;;;;;;;;5036166;28;20492;-75
2022/08/07 02:21:34;;;;;;;2.67;1.07;;;;;;;;;;5036123;28;20770;-75
2022/08/07 02:24:00;;;;;;;3.03;1.30;;;;;;;;;;5036158;28;20401;-75
2022/08/07 02:26:27;;;;;;;1.13;1.00;;;;;;;;;;5035970;28;20895;-75
2022/08/07 02:28:53;;;;;;;1.37;0.97;;;;;;;;;;5035903;28;20502;-74
2022/08/07 02:31:20;;;;;;;1.00;1.00;;;;;;;;;;5035957;28;20744;-75
2022/08/07 02:33:46;;;;;;;1.10;1.10;;;;;;;;;;5036033;28;20450;-75
2022/08/07 02:36:13;;;;;;;1.37;1.03;;;;;;;;;;5035945;28;20446;-75
2022/08/07 02:38:39;;;;;;;2.50;0.97;;;;;;;;;;5036106;28;20821;-75
2022/08/07 02:41:06;;;;;;;2.93;1.30;;;;;;;;;;5036001;28;20411;-75
2022/08/07 02:43:34;;;;;;;1.47;1.30;;;;;;;;;;5035621;28;20463;-75
2022/08/07 02:46:01;;;;;;;1.43;1.10;;;;;;;;;;5035762;28;20408;-75
2022/08/07 02:48:27;;;;;;;1.17;1.07;;;;;;;;;;5035623;28;20401;-75
2022/08/07 02:50:54;;;;;;;6.13;1.30;;;;;;;;;;5035774;28;20479;-75
2022/08/07 02:53:26;;;;;;;1.57;1.27;;;;;;;;;;5035575;28;20403;-75
2022/08/07 02:55:52;;;;;;;1.10;1.00;;;;;;;;;;5034561;28;20412;-75
2022/08/07 02:58:20;;;;;;;1.07;1.07;;;;;;;;;;5035819;28;20499;-75
2022/08/07 03:00:48;;;;;;;1.33;1.20;;;;;;;;;;5035528;28;20479;-75
2022/08/07 03:03:15;;;;;;;3.27;1.10;;;;;;;;;;5035539;28;20416;-75
2022/08/07 03:05:41;;;;;;;1.17;0.97;;;;;;;;;;5035553;28;20423;-75
2022/08/07 03:08:08;;;;;;;3.23;0.90;;;;;;;;;;5035275;28;20424;-75
2022/08/07 03:10:35;;;;;;;5.03;1.30;;;;;;;;;;5035198;28;20546;-75
2022/08/07 03:13:02;;;;;;;5.60;1.20;;;;;;;;;;5035135;28;20407;-75
2022/08/07 03:15:28;;;;;;;1.13;1.07;;;;;;;;;;5035133;28;20792;-75
2022/08/07 03:17:54;;;;;;;1.10;1.10;;;;;;;;;;5035083;28;20419;-75
2022/08/07 03:20:21;;;;;;;1.23;1.07;;;;;;;;;;5035017;28;20455;-75
2022/08/07 03:22:47;;;;;;;1.50;0.90;;;;;;;;;;5034980;28;20408;-75
2022/08/07 03:25:14;;;;;;;9.03;1.00;;;;;;;;;;5035227;28;20766;-75
2022/08/07 03:27:41;;;;;;;1.20;1.10;;;;;;;;;;5034903;28;20410;-75
2022/08/07 03:30:08;;;;;;;1.33;1.10;;;;;;;;;;5034818;28;20495;-75
2022/08/07 03:32:36;;;;;;;2.87;1.60;;;;;;;;;;5034830;28;20414;-75
2022/08/07 03:35:03;;;;;;;6.43;1.20;;;;;;;;;;5034737;28;20411;-75
2022/08/07 03:37:30;;;;;;;3.03;1.20;;;;;;;;;;5034708;28;20411;-75
2022/08/07 03:39:57;;;;;;;1.23;1.20;;;;;;;;;;5034930;28;20415;-75
2022/08/07 03:42:23;;;;;;;2.00;0.90;;;;;;;;;;5034470;28;20546;-75
2022/08/07 03:44:49;;;;;;;1.13;1.13;;;;;;;;;;5034518;28;20399;-75
2022/08/07 03:47:16;;;;;;;1.40;1.30;;;;;;;;;;5016828;28;20433;-75
2022/08/07 03:49:42;;;;;;;1.07;1.07;;;;;;;;;;5034388;28;20462;-75
2022/08/07 03:52:09;;;;;;;1.30;1.20;;;;;;;;;;5034379;28;20417;-75
2022/08/07 03:54:35;;;;;;;3.03;1.20;;;;;;;;;;5034333;28;20395;-75
2022/08/07 03:57:02;;;;;;;1.07;0.90;;;;;;;;;;5034352;28;20431;-75
2022/08/07 03:59:28;;;;;;;2.60;0.90;;;;;;;;;;5034309;28;20395;-75
2022/08/07 04:01:55;;;;;;;2.40;1.00;;;;;;;;;;5016446;28;20480;-75
2022/08/07 04:04:22;;;;;;;1.17;1.07;;;;;;;;;;5034238;28;20438;-75
2022/08/07 04:06:48;;;;;;;2.50;1.10;;;;;;;;;;5016265;28;20454;-75
2022/08/07 04:09:14;;;;;;;0.93;0.93;;;;;;;;;;5034049;28;20470;-75
2022/08/07 04:11:40;;;;;;;2.20;1.10;;;;;;;;;;5034041;28;20491;-75
2022/08/07 04:14:07;;;;;;;1.63;1.23;;;;;;;;;;5033918;28;20419;-75
2022/08/07 04:16:33;;;;;;;1.10;1.10;;;;;;;;;;5034284;28;20829;-75
2022/08/07 04:19:03;;;;;;;1.27;1.27;;;;;;;;;;5016800;28;20768;-75
2022/08/07 04:21:29;;;;;;;2.10;1.13;;;;;;;;;;5034124;28;20505;-75
2022/08/07 04:23:57;;;;;;;1.10;1.00;;;;;;;;;;5016435;28;20420;-74
2022/08/07 04:26:23;;;;;;;2.97;1.03;;;;;;;;;;5033768;28;20544;-75
2022/08/07 04:28:49;;;;;;;3.23;0.90;;;;;;;;;;5033792;28;20420;-74
2022/08/07 04:31:15;;;;;;;5.20;1.10;;;;;;;;;;5016363;28;20888;-75
2022/08/07 04:33:42;;;;;;;0.90;0.90;;;;;;;;;;5033695;28;20743;-75
2022/08/07 04:36:08;;;;;;;0.83;0.83;;;;;;;;;;5033737;28;20486;-74
2022/08/07 04:38:35;;;;;;;3.33;0.93;;;;;;;;;;5033847;28;20413;-75
2022/08/07 04:41:01;;;;;;;1.07;0.90;;;;;;;;;;5033858;28;20427;-74
2022/08/07 04:43:32;;;;;;;1.53;1.10;;;;;;;;;;5033414;28;20524;-75
2022/08/07 04:46:17;;;;;;;0.93;0.93;;;;;;;;;;5033631;28;20890;-75
2022/08/07 04:49:00;;;;;;;0.80;0.80;;;;;;;;;;5033558;28;20415;-76
2022/08/07 04:51:33;;;;;;;4.10;1.27;;;;;;;;;;5015809;28;20451;-75
2022/08/07 04:54:01;;;;;;;2.63;1.10;;;;;;;;;;5033396;28;20413;-75
2022/08/07 04:56:31;;;;;;;2.47;1.00;;;;;;;;;;5033454;28;20877;-75
2022/08/07 04:59:02;;;;;;;1.30;1.30;;;;;;;;;;5033386;28;20418;-75
2022/08/07 05:01:34;;;;;;;1.57;0.77;;;;;;;;;;5033379;28;20432;-75
2022/08/07 05:04:03;;;;;;;5.07;1.53;;;;;;;;;;5033357;28;20410;-74
2022/08/07 05:06:35;;;;;;;1.90;0.90;;;;;;;;;;5033313;28;20407;-75
2022/08/07 05:09:07;;;;;;;0.80;0.80;;;;;;;;;;5033233;28;20755;-75
2022/08/07 05:11:36;;;;;;;0.80;0.80;;;;;;;;;;5033309;28;20419;-75
2022/08/07 05:14:05;;;;;;;1.20;1.10;;;;;;;;;;5033222;28;20418;-75
2022/08/07 05:16:32;;;;;;;3.47;1.27;;;;;;;;;;5033239;28;20430;-75
2022/08/07 05:19:01;;;;;;;1.37;1.27;;;;;;;;;;5036144;28;20749;-75
2022/08/07 05:21:28;;;;;;;0.80;0.80;;;;;;;;;;5037181;28;20403;-75
2022/08/07 05:23:57;;;;;;;3.20;1.30;;;;;;;;;;5037301;28;20923;-75
2022/08/07 05:26:25;;;;;;;1.27;1.17;;;;;;;;;;5037120;28;20413;-75
2022/08/07 05:28:54;;;;;;;3.13;0.80;;;;;;;;;;5037028;28;20488;-75
2022/08/07 05:31:21;;;;;;;0.70;0.70;;;;;;;;;;5037137;28;20504;-75
2022/08/07 05:33:49;;;;;;;1.20;1.10;;;;;;;;;;5037092;28;20502;-76
2022/08/07 05:36:15;;;;;;;1.43;1.33;;;;;;;;;;5036990;28;20409;-75
2022/08/07 05:38:42;;;;;;;2.20;1.07;;;;;;;;;;5036915;28;20457;-76
2022/08/07 05:41:09;;;;;;;1.93;1.83;;;;;;;;;;5036762;28;20425;-76
2022/08/07 05:43:35;;;;;;;1.60;0.80;;;;;;;;;;5036616;28;20475;-75
2022/08/07 05:46:02;;;;;;;1.37;0.90;;;;;;;;;;5019018;28;20427;-76
2022/08/07 05:48:28;;;;;;;2.30;1.00;;;;;;;;;;5036790;28;20506;-76
2022/08/07 05:50:59;;;;;;;1.70;0.83;;;;;;;;;;5036526;28;21028;-75
2022/08/07 05:53:26;;;;;;;1.20;1.20;;;;;;;;;;5036941;28;20446;-76
2022/08/07 05:55:53;;;;;;;1.00;1.00;;;;;;;;;;5036550;28;20419;-76
2022/08/07 05:58:20;;;;;;;1.87;1.03;;;;;;;;;;5036471;28;20402;-75
2022/08/07 06:00:46;;;;;;;2.60;0.97;;;;;;;;;;5036490;28;20450;-76
2022/08/07 06:03:13;;;;;;;1.10;1.10;;;;;;;;;;5036536;28;20400;-76
2022/08/07 06:05:39;;;;;;;0.93;0.90;;;;;;;;;;5018650;28;20906;-76
2022/08/07 06:08:05;;;;;;;2.03;1.20;;;;;;;;;;5036643;28;20461;-72
2022/08/07 06:10:32;;;;;;;1.23;0.90;;;;;;;;;;5036219;28;20466;-68
2022/08/07 06:12:59;;;;;;;3.50;0.97;;;;;;;;;;5036221;28;20894;-76
2022/08/07 06:15:26;;;;;;;0.90;0.90;;;;;;;;;;5036196;28;20962;-72
2022/08/07 06:17:52;;;;;;;0.93;0.93;;;;;;;;;;5036473;28;20436;-70
2022/08/07 06:20:18;;;;;;;2.80;2.70;;;;;;;;;;5036173;28;20435;-73
2022/08/07 06:22:46;;;;;;;2.20;2.10;;;;;;;;;;5036101;28;20462;-74
2022/08/07 06:25:12;;;;;;;1.33;1.23;;;;;;;;;;5036065;28;20477;-75
2022/08/07 06:27:38;;;;;;;1.07;0.97;;;;;;;;;;5036005;28;20411;-73
2022/08/07 06:30:05;;;;;;;1.17;0.97;;;;;;;;;;5035759;28;20471;-74
2022/08/07 06:32:31;;;;;;;2.90;1.10;;;;;;;;;;5035950;28;20393;-75
2022/08/07 06:34:59;;;;;;;1.07;0.93;;;;;;;;;;5036330;28;20416;-72
2022/08/07 06:37:25;;;;;;;6.03;1.10;;;;;;;;;;5035956;28;20407;-75
2022/08/07 06:39:52;;;;;;;2.20;1.03;;;;;;;;;;5035858;28;20416;-75
2022/08/07 06:42:26;;;;;;;8.10;1.20;;;;;;;;;;5035691;28;20469;-75
2022/08/07 06:44:52;;;;;;;4.00;3.70;;;;;;;;;;5035885;28;20465;-73
2022/08/07 06:47:19;;;;;;;1.40;1.40;;;;;;;;;;5035817;28;20420;-74
2022/08/07 06:49:45;;;;;;;2.00;1.20;;;;;;;;;;5035646;28;20541;-83
2022/08/07 06:52:11;;;;;;;4.83;1.00;;;;;;;;;;5035673;28;20488;-80
2022/08/07 06:54:38;;;;;;;0.97;0.97;;;;;;;;;;5035517;28;20779;-83
2022/08/07 06:57:06;;;;;;;1.13;1.10;;;;;;;;;;5035482;28;20404;-74
2022/08/07 06:59:34;;;;;;;1.43;1.20;;;;;;;;;;5035533;28;20406;-81
2022/08/07 07:02:00;;;;;;;3.90;1.17;;;;;;;;;;5035430;28;20411;-78
2022/08/07 07:04:26;;;;;;;1.10;1.10;;;;;;;;;;5035368;28;20401;-75
2022/08/07 07:06:53;;;;;;;1.30;1.30;;;;;;;;;;5035565;28;20436;-74
2022/08/07 07:09:22;;;;;;;1.33;1.00;;;;;;;;;;5035252;28;20465;-75
2022/08/07 07:12:06;;;;;;;2.30;1.10;;;;;;;;;;5035407;28;20419;-74
2022/08/07 07:14:35;;;;;;;4.43;1.40;;;;;;;;;;5035196;28;20408;-76
2022/08/07 07:17:04;;;;;;;1.10;1.00;;;;;;;;;;5035204;28;20433;-82
2022/08/07 07:19:31;;;;;;;1.20;1.20;;;;;;;;;;5017505;28;20885;-79
2022/08/07 07:21:58;;;;;;;1.20;1.07;;;;;;;;;;5034999;28;20835;-81
2022/08/07 07:24:24;;;;;;;11.63;6.87;;;;;;;;;;5034930;28;20531;-79
2022/08/07 07:26:53;;;;;;;3.97;1.87;;;;;;;;;;5035037;28;20441;-76
2022/08/07 07:29:23;;;;;;;2.30;1.60;;;;;;;;;;5034893;28;20458;-78
2022/08/07 07:31:50;;;;;;;2.20;1.30;;;;;;;;;;5035134;28;20908;-78
2022/08/07 07:34:21;;;;;;;1.03;1.03;;;;;;;;;;5019622;28;20508;-75
2022/08/07 07:36:48;;;;;;;6.10;1.47;;;;;;;;;;5034997;28;20898;-76
2022/08/07 07:39:15;;;;;;;1.33;1.27;;;;;;;;;;5034890;28;20408;-81
2022/08/07 07:41:42;;;;;;;6.43;1.20;;;;;;;;;;5034157;28;20448;-72
2022/08/07 07:44:09;;;;;;;1.50;1.17;;;;;;;;;;5034519;28;20426;-76
2022/08/07 07:46:36;;;;;;;1.10;1.10;;;;;;;;;;5034693;28;20916;-77
2022/08/07 07:49:03;;;;;;;1.57;1.57;;;;;;;;;;5034707;28;20419;-77
2022/08/07 07:51:30;;;;;;;1.43;1.20;;;;;;;;;;5034572;28;20428;-84
2022/08/07 07:53:57;;;;;;;1.30;1.30;;;;;;;;;;5034604;28;20407;-82
2022/08/07 07:56:24;;;;;;;5.70;1.40;;;;;;;;;;5034479;28;20443;-83
2022/08/07 07:58:50;;;;;;;1.30;1.30;;;;;;;;;;5034343;28;20401;-84
2022/08/07 08:01:16;;;;;;;7.20;1.13;;;;;;;;;;5034365;28;20416;-83
2022/08/07 08:03:43;;;;;;;1.37;1.37;;;;;;;;;;5034256;28;20413;-77
2022/08/07 08:06:09;;;;;;;3.53;2.93;;;;;;;;;;5034593;28;20416;-77
2022/08/07 08:08:36;;;;;;;9.57;8.80;;;;;;;;;;5034143;28;20403;-72
2022/08/07 08:11:03;;;;;;;2.63;2.53;;;;;;;;;;5033951;28;20490;-73
2022/08/07 08:13:30;;;;;;;1.70;1.37;;;;;;;;;;5034030;28;20400;-76
2022/08/07 08:16:00;;;;;;;9.83;1.40;;;;;;;;;;5034048;28;20400;-75
2022/08/07 08:18:27;;;;;;;1.20;1.10;;;;;;;;;;5034233;28;20450;-76
2022/08/07 08:20:53;;;;;;;3.37;1.40;;;;;;;;;;5033929;28;20401;-74
2022/08/07 08:28:52;;;;;;;2.53;1.20;;;;;;;;;;5033952;28;20457;-77
2022/08/07 08:31:22;;;;;;;1.30;1.20;;;;;;;;;;5033695;28;20474;-75
2022/08/07 08:33:50;;;;;;;1.67;1.57;;;;;;;;;;5033766;28;20398;-76
2022/08/07 08:36:17;;;;;;;2.63;1.47;;;;;;;;;;5033744;28;20401;-73
2022/08/07 08:38:44;;;;;;;1.40;1.40;;;;;;;;;;5033714;28;20405;-76
2022/08/07 08:41:14;;;;;;;2.30;1.60;;;;;;;;;;5033640;28;20826;-71
2022/08/07 08:43:47;;;;;;;1.60;1.60;;;;;;;;;;5033387;28;20968;-70
2022/08/07 08:46:33;;;;;;;1.43;1.40;;;;;;;;;;5033581;28;20498;-73
2022/08/07 08:49:04;;;;;;;1.60;1.50;;;;;;;;;;5033460;28;20502;-73
2022/08/07 08:51:46;;;;;;;19.33;4.20;;;;;;;;;;5033496;28;20446;-73
2022/08/07 08:54:19;;;;;;;3.80;2.67;;;;;;;;;;5033445;28;20420;-73
2022/08/07 08:56:48;;;;;;;2.63;2.53;;;;;;;;;;5033423;28;20884;-72
2022/08/07 08:59:34;;;;;;;1.97;1.80;;;;;;;;;;5033421;28;20426;-72
2022/08/07 09:02:03;;;;;;;2.00;1.10;;;;;;;;;;5033623;28;20484;-73
2022/08/07 09:04:48;;;;;;;4.77;1.70;;;;;;;;;;5033392;28;20403;-71
2022/08/07 09:07:36;;;;;;;2.83;1.70;;;;;;;;;;5033288;28;20407;-71
2022/08/07 09:10:17;;;;;;;2.13;1.67;;;;;;;;;;5033198;28;20949;-71
2022/08/07 09:12:48;;;;;;;2.00;1.40;;;;;;;;;;5033548;28;20452;-71
2022/08/07 09:15:32;;;;;;;1.80;1.70;;;;;;;;;;5033307;28;20397;-71
2022/08/07 09:18:04;;;;;;;1.97;1.87;;;;;;;;;;5033194;28;20415;-72
2022/08/07 09:20:35;;;;;;;2.87;1.73;;;;;;;;;;5033255;28;20482;-71
2022/08/07 09:23:21;;;;;;;1.70;1.60;;;;;;;;;;5033216;28;20401;-71
2022/08/07 09:25:52;;;;;;;1.90;1.60;;;;;;;;;;5033043;28;20440;-70
2022/08/07 09:28:24;;;;;;;3.07;1.57;;;;;;;;;;5033009;28;20940;-72
2022/08/07 09:31:00;;;;;;;1.90;1.80;;;;;;;;;;5033045;28;20471;-70
2022/08/07 09:33:38;;;;;;;1.30;1.30;;;;;;;;;;5033061;28;20790;-71
2022/08/07 09:36:16;;;;;;;1.80;1.77;;;;;;;;;;5033104;28;20484;-71
2022/08/07 09:38:49;;;;;;;2.23;2.00;;;;;;;;;;5015394;28;20436;-73
2022/08/07 09:41:24;;;;;;;2.20;2.10;;;;;;;;;;5032970;28;20465;-72
2022/08/07 09:43:58;;;;;;;1.80;1.70;;;;;;;;;;5032756;28;20468;-74
2022/08/07 09:46:43;;;;;;;1.33;1.23;;;;;;;;;;5032997;28;20430;-75
2022/08/07 09:49:15;;;;;;;2.40;1.40;;;;;;;;;;5032930;28;20824;-75
2022/08/07 09:51:51;;;;;;;2.10;2.00;;;;;;;;;;5032867;28;20434;-79
2022/08/07 09:54:19;;;;;;;1.70;1.60;;;;;;;;;;5032790;28;20414;-76
2022/08/07 09:56:51;;;;;;;1.33;1.33;;;;;;;;;;5015094;28;20439;-78
2022/08/07 09:59:37;;;;;;;1.53;1.53;;;;;;;;;;5032779;28;20771;-78
2022/08/07 10:02:42;;;;;;;2.10;1.40;;;;;;;;;;5033103;28;20436;-77
2022/08/07 10:05:27;;;;;;;1.43;1.43;;;;;;;;;;4974736;28;20593;-76
2022/08/07 10:08:22;;;;;;;1.70;1.60;;;;;;;;;;5004479;28;20423;-78
2022/08/07 10:11:03;;;;;;;1.97;1.87;;;;;;;;;;5019575;28;20549;-78
2022/08/07 10:13:32;;;;;;;1.30;1.20;;;;;;;;;;5036568;28;20413;-78
2022/08/07 10:16:05;;;;;;;2.67;1.80;;;;;;;;;;5036403;28;20504;-78
2022/08/07 10:18:45;;;;;;;1.83;1.70;;;;;;;;;;5036313;28;20898;-78
2022/08/07 10:21:29;;;;;;;2.30;1.37;;;;;;;;;;5036212;28;20398;-79
2022/08/07 10:24:18;;;;;;;1.67;1.67;;;;;;;;;;5036123;28;20406;-78
2022/08/07 10:26:57;;;;;;;2.10;1.40;;;;;;;;;;5025699;28;20529;-77
2022/08/07 10:29:42;;;;;;;1.97;1.77;;;;;;;;;;5035936;28;20459;-77
2022/08/07 10:32:17;;;;;;;1.80;1.80;;;;;;;;;;5035966;28;20414;-77
2022/08/07 10:34:57;;;;;;;5.43;1.70;;;;;;;;;;5035884;28;20406;-79
2022/08/07 10:37:26;;;;;;;5.20;1.67;;;;;;;;;;5035627;28;20399;-77
2022/08/07 10:40:03;;;;;;;2.83;1.63;;;;;;;;;;5035755;28;20498;-77
2022/08/07 10:42:28;;;;;;;1.63;1.63;;;;;;;;;;5035523;28;20463;-77
2022/08/07 10:44:57;;;;;;;1.53;1.47;;;;;;;;;;5035798;28;20410;-77
2022/08/07 10:47:38;;;;;;;1.90;1.77;;;;;;;;;;5035678;28;20881;-78
2022/08/07 10:50:14;;;;;;;1.93;1.80;;;;;;;;;;5035649;28;20517;-76
2022/08/07 10:52:49;;;;;;;2.63;1.43;;;;;;;;;;5035624;28;20893;-77
2022/08/07 10:55:18;;;;;;;1.50;1.40;;;;;;;;;;5035537;28;20407;-78
2022/08/07 10:58:05;;;;;;;1.93;1.60;;;;;;;;;;5017813;28;20461;-78
2022/08/07 11:00:36;;;;;;;1.70;1.70;;;;;;;;;;5035558;28;20415;-78
2022/08/07 11:03:02;;;;;;;1.93;1.23;;;;;;;;;;5035527;28;20392;-78
2022/08/07 11:05:30;;;;;;;5.20;1.13;;;;;;;;;;5035663;28;20426;-77
2022/08/07 11:07:56;;;;;;;1.70;1.53;;;;;;;;;;5035928;28;20171;-76
2022/08/07 11:10:46;;;;;;;2.50;1.30;;;;;;;;;;5035575;28;20467;-78
2022/08/07 11:13:23;;;;;;;1.60;1.50;;;;;;;;;;5025224;28;20420;-78
2022/08/07 11:15:51;;;;;;;1.60;1.50;;;;;;;;;;5034257;28;20407;-77
2022/08/07 11:18:20;;;;;;;3.17;1.90;;;;;;;;;;5035455;28;20461;-79
2022/08/07 11:20:52;;;;;;;1.70;1.60;;;;;;;;;;5035208;28;20457;-77
2022/08/07 11:23:22;;;;;;;2.10;1.53;;;;;;;;;;5035149;28;20411;-78
2022/08/07 11:25:50;;;;;;;1.50;1.50;;;;;;;;;;5035108;28;20498;-78
2022/08/07 11:28:21;;;;;;;4.20;1.60;;;;;;;;;;5035159;28;20407;-80
2022/08/07 11:30:50;;;;;;;2.87;1.50;;;;;;;;;;5035011;28;20558;-78
2022/08/07 11:33:36;;;;;;;9.67;1.80;;;;;;;;;;5017138;28;20422;-80
2022/08/07 11:36:11;;;;;;;2.43;1.37;;;;;;;;;;5034861;28;20438;-78
2022/08/07 11:38:43;;;;;;;1.43;1.43;;;;;;;;;;5034727;28;20410;-80
2022/08/07 11:41:18;;;;;;;2.77;1.40;;;;;;;;;;5034842;28;20404;-78
2022/08/07 11:43:50;;;;;;;1.93;1.40;;;;;;;;;;5034556;28;20462;-80
2022/08/07 11:46:36;;;;;;;1.47;1.47;;;;;;;;;;5034623;28;20747;-78
2022/08/07 11:49:09;;;;;;;2.93;1.53;;;;;;;;;;5020893;28;20423;-80
2022/08/07 11:51:39;;;;;;;2.10;1.43;;;;;;;;;;5034833;28;20455;-79
2022/08/07 11:54:24;;;;;;;1.60;1.60;;;;;;;;;;5034702;28;20491;-78
2022/08/07 11:56:53;;;;;;;2.37;1.43;;;;;;;;;;5034653;28;20408;-79
2022/08/07 11:59:25;;;;;;;1.53;1.53;;;;;;;;;;5034377;28;20770;-78
2022/08/07 12:02:16;;;;;;;1.53;1.43;;;;;;;;;;5034649;28;20408;-78
2022/08/07 12:04:42;;;;;;;1.57;1.57;;;;;;;;;;5034345;28;20420;-78
2022/08/07 12:07:24;;;;;;;1.87;1.77;;;;;;;;;;5034384;28;20423;-80
2022/08/07 12:09:55;;;;;;;1.40;1.30;;;;;;;;;;5034309;28;20284;-79
2022/08/07 12:12:25;;;;;;;2.87;1.27;;;;;;;;;;5034308;28;20467;-78
2022/08/07 12:15:09;;;;;;;2.30;1.63;;;;;;;;;;5034135;28;20404;-78
2022/08/07 12:17:40;;;;;;;1.47;1.37;;;;;;;;;;5034047;28;20558;-78
2022/08/07 12:20:09;;;;;;;2.20;1.43;;;;;;;;;;5034020;28;20405;-79
2022/08/07 12:22:36;;;;;;;2.13;1.40;;;;;;;;;;5034030;28;20432;-78
2022/08/07 12:27:52;;;;;;;1.43;1.33;;;;;;;;;;5033730;28;20399;-79
2022/08/07 12:30:18;;;;;;;1.77;1.77;;;;;;;;;;5033850;28;20451;-76
2022/08/07 12:32:49;;;;;;;7.53;1.80;;;;;;;;;;5033913;28;20462;-78
2022/08/07 12:35:16;;;;;;;1.17;1.17;;;;;;;;;;5034034;28;20899;-79
2022/08/07 12:37:46;;;;;;;1.30;1.30;;;;;;;;;;5034071;28;20407;-78
2022/08/07 12:40:13;;;;;;;2.57;1.20;;;;;;;;;;5034168;28;20411;-79
2022/08/07 12:42:39;;;;;;;1.50;1.50;;;;;;;;;;5033668;28;20827;-76
2022/08/07 12:45:08;;;;;;;1.53;1.43;;;;;;;;;;5034057;28;20411;-79
2022/08/07 12:47:40;;;;;;;1.73;1.57;;;;;;;;;;5033670;28;20408;-78
2022/08/07 12:50:05;;;;;;;1.40;1.40;;;;;;;;;;5033518;28;20474;-77
2022/08/07 12:52:37;;;;;;;1.10;1.10;;;;;;;;;;5034136;28;20404;-77
2022/08/07 12:55:30;;;;;;;3.47;1.67;;;;;;;;;;5033648;28;20427;-77
2022/08/07 12:57:57;;;;;;;1.37;1.37;;;;;;;;;;5003873;28;20416;-78
2022/08/07 13:00:33;;;;;;;1.23;1.23;;;;;;;;;;5033541;28;20408;-80
2022/08/07 13:03:00;;;;;;;1.47;1.47;;;;;;;;;;5033534;28;20403;-79
2022/08/07 13:05:44;;;;;;;1.50;1.40;;;;;;;;;;5015862;28;20463;-78
2022/08/07 13:08:25;;;;;;;1.40;1.30;;;;;;;;;;5033481;28;20440;-78
2022/08/07 13:10:59;;;;;;;1.30;1.30;;;;;;;;;;5033568;28;20466;-78
2022/08/07 13:13:33;;;;;;;2.03;1.50;;;;;;;;;;5033226;28;20794;-77
2022/08/07 13:15:59;;;;;;;4.30;1.13;;;;;;;;;;5033316;28;20411;-77
2022/08/07 13:18:43;;;;;;;1.57;1.57;;;;;;;;;;5015596;28;20412;-77
2022/08/07 13:21:21;;;;;;;2.47;1.83;;;;;;;;;;5033362;28;20407;-78
2022/08/07 13:23:51;;;;;;;1.40;1.40;;;;;;;;;;5033294;28;20412;-78
2022/08/07 13:26:31;;;;;;;1.47;1.47;;;;;;;;;;5033237;28;20773;-79
2022/08/07 13:29:19;;;;;;;1.57;1.57;;;;;;;;;;5033050;28;20875;-77
2022/08/07 13:31:50;;;;;;;1.47;1.47;;;;;;;;;;5033235;28;20832;-77
2022/08/07 13:34:22;;;;;;;11.67;1.57;;;;;;;;;;5033216;28;20412;-79
2022/08/07 13:36:52;;;;;;;1.73;1.60;;;;;;;;;;5033089;28;20416;-78
2022/08/07 13:39:41;;;;;;;1.33;1.23;;;;;;;;;;5034911;28;20410;-77
2022/08/07 13:42:09;;;;;;;1.40;1.30;;;;;;;;;;5018823;28;20467;-77
2022/08/07 13:44:37;;;;;;;1.30;1.30;;;;;;;;;;5036891;28;20463;-76
2022/08/07 13:47:04;;;;;;;2.20;1.67;;;;;;;;;;5036855;28;20412;-76
2022/08/07 13:49:35;;;;;;;1.57;1.50;;;;;;;;;;5036750;28;20494;-78
2022/08/07 13:52:03;;;;;;;1.73;1.40;;;;;;;;;;5037039;28;20423;-78
2022/08/07 13:54:30;;;;;;;3.57;1.53;;;;;;;;;;5036841;28;20427;-80
2022/08/07 13:56:58;;;;;;;1.53;1.43;;;;;;;;;;5036567;28;20890;-78
2022/08/07 13:59:25;;;;;;;2.00;1.90;;;;;;;;;;5036736;28;20423;-75
2022/08/07 14:01:56;;;;;;;1.37;1.37;;;;;;;;;;5036860;28;20420;-76
2022/08/07 14:04:24;;;;;;;1.40;1.30;;;;;;;;;;5036618;28;20400;-79
2022/08/07 14:06:51;;;;;;;2.40;1.40;;;;;;;;;;5036528;28;20853;-78
2022/08/07 14:09:20;;;;;;;2.90;1.43;;;;;;;;;;5036417;28;20399;-78
2022/08/07 14:11:50;;;;;;;6.13;1.27;;;;;;;;;;5036647;28;20503;-79
2022/08/07 14:14:16;;;;;;;1.50;1.40;;;;;;;;;;5036626;28;20419;-79
2022/08/07 14:16:46;;;;;;;1.90;1.10;;;;;;;;;;5036944;28;20408;-78
2022/08/07 14:19:15;;;;;;;1.30;1.30;;;;;;;;;;5019171;28;20416;-79
2022/08/07 14:21:47;;;;;;;1.00;1.00;;;;;;;;;;5036246;28;20507;-78
2022/08/07 14:24:33;;;;;;;1.50;1.40;;;;;;;;;;5036163;28;20820;-77
2022/08/07 14:27:02;;;;;;;5.03;1.53;;;;;;;;;;5036045;28;20910;-78
2022/08/07 14:29:39;;;;;;;1.40;1.40;;;;;;;;;;5036024;28;20490;-77
2022/08/07 14:32:07;;;;;;;2.40;1.50;;;;;;;;;;5036072;28;20508;-78
2022/08/07 14:34:33;;;;;;;1.57;1.20;;;;;;;;;;5036086;28;20415;-78
2022/08/07 14:37:00;;;;;;;1.47;1.47;;;;;;;;;;5036306;28;20410;-77
2022/08/07 14:39:26;;;;;;;1.30;1.30;;;;;;;;;;5035894;28;20812;-77
2022/08/07 14:41:53;;;;;;;1.40;1.30;;;;;;;;;;5035681;28;20402;-76
2022/08/07 14:44:19;;;;;;;1.47;1.40;;;;;;;;;;5018007;28;20438;-77
2022/08/07 14:46:46;;;;;;;1.40;1.30;;;;;;;;;;5035899;28;20443;-78
2022/08/07 14:49:13;;;;;;;5.33;1.50;;;;;;;;;;5035812;28;20415;-78
2022/08/07 14:51:41;;;;;;;4.10;1.40;;;;;;;;;;5035534;28;20495;-78
2022/08/07 14:54:09;;;;;;;2.00;1.40;;;;;;;;;;5035862;28;20405;-76
2022/08/07 14:56:38;;;;;;;1.67;1.30;;;;;;;;;;5035702;28;20463;-80
2022/08/07 14:59:08;;;;;;;1.30;1.30;;;;;;;;;;5035809;28;20411;-78
2022/08/07 15:01:35;;;;;;;1.90;1.20;;;;;;;;;;5017730;28;20881;-77
2022/08/07 15:04:03;;;;;;;1.20;1.20;;;;;;;;;;5035639;28;20420;-76
2022/08/07 15:06:30;;;;;;;5.27;1.20;;;;;;;;;;5035625;28;20867;-75
2022/08/07 15:09:01;;;;;;;1.47;1.40;;;;;;;;;;5035430;28;20416;-78